sensor_id;sensor_type;location;lat;lon;timestamp;P1;durP1;ratioP1;P2;durP2;ratioP2
13872;SDS011;7006;51.494;11.964;2023-05-07T00:00:13;15.67;;;12.27;;
13872;SDS011;7006;51.494;11.964;2023-05-07T00:02:43;16.20;;;12.57;;
13872;SDS011;7006;51.494;11.964;2023-05-07T00:05:12;16.57;;;13.10;;
13872;SDS011;7006;51.494;11.964;2023-05-07T00:07:40;15.47;;;13.10;;
13872;SDS011;7006;51.494;11.964;2023-05-07T00:10:11;18.47;;;14.37;;
13872;SDS011;7006;51.494;11.964;2023-05-07T00:12:40;20.77;;;15.03;;
13872;SDS011;7006;51.494;11.964;2023-05-07T00:15:08;21.70;;;15.67;;
13872;SDS011;7006;51.494;11.964;2023-05-07T00:17:36;17.97;;;14.20;;
13872;SDS011;7006;51.494;11.964;2023-05-07T00:20:05;18.43;;;13.53;;
13872;SDS011;7006;51.494;11.964;2023-05-07T00:22:33;18.23;;;13.60;;
13872;SDS011;7006;51.494;11.964;2023-05-07T00:25:01;17.17;;;13.67;;
13872;SDS011;7006;51.494;11.964;2023-05-07T00:27:32;18.37;;;13.30;;
13872;SDS011;7006;51.494;11.964;2023-05-07T00:30:00;16.00;;;12.67;;
13872;SDS011;7006;51.494;11.964;2023-05-07T00:32:29;19.30;;;12.53;;
13872;SDS011;7006;51.494;11.964;2023-05-07T00:34:57;16.40;;;12.67;;
13872;SDS011;7006;51.494;11.964;2023-05-07T00:37:25;14.40;;;11.87;;
13872;SDS011;7006;51.494;11.964;2023-05-07T00:39:53;14.93;;;12.53;;
13872;SDS011;7006;51.494;11.964;2023-05-07T00:42:21;16.97;;;12.00;;
13872;SDS011;7006;51.494;11.964;2023-05-07T00:44:52;14.27;;;11.77;;
13872;SDS011;7006;51.494;11.964;2023-05-07T00:47:20;18.93;;;11.47;;
13872;SDS011;7006;51.494;11.964;2023-05-07T00:49:48;14.77;;;11.30;;
13872;SDS011;7006;51.494;11.964;2023-05-07T00:52:17;16.70;;;12.60;;
13872;SDS011;7006;51.494;11.964;2023-05-07T00:54:45;15.83;;;12.90;;
13872;SDS011;7006;51.494;11.964;2023-05-07T00:57:13;14.90;;;11.63;;
13872;SDS011;7006;51.494;11.964;2023-05-07T00:59:42;15.13;;;12.20;;
13872;SDS011;7006;51.494;11.964;2023-05-07T01:02:13;16.30;;;12.90;;
13872;SDS011;7006;51.494;11.964;2023-05-07T01:04:41;16.93;;;13.40;;
13872;SDS011;7006;51.494;11.964;2023-05-07T01:07:09;16.17;;;13.30;;
13872;SDS011;7006;51.494;11.964;2023-05-07T01:09:37;21.80;;;12.60;;
13872;SDS011;7006;51.494;11.964;2023-05-07T01:12:06;18.40;;;12.23;;
13872;SDS011;7006;51.494;11.964;2023-05-07T01:14:35;18.07;;;12.93;;
13872;SDS011;7006;51.494;11.964;2023-05-07T01:17:03;16.83;;;13.43;;
13872;SDS011;7006;51.494;11.964;2023-05-07T01:19:34;15.63;;;13.07;;
13872;SDS011;7006;51.494;11.964;2023-05-07T01:22:03;18.17;;;13.30;;
13872;SDS011;7006;51.494;11.964;2023-05-07T01:24:34;15.13;;;11.93;;
13872;SDS011;7006;51.494;11.964;2023-05-07T01:27:03;14.47;;;11.80;;
13872;SDS011;7006;51.494;11.964;2023-05-07T01:29:31;15.20;;;11.80;;
13872;SDS011;7006;51.494;11.964;2023-05-07T01:32:00;15.70;;;12.50;;
13872;SDS011;7006;51.494;11.964;2023-05-07T01:34:30;16.80;;;12.73;;
13872;SDS011;7006;51.494;11.964;2023-05-07T01:36:59;14.73;;;11.87;;
13872;SDS011;7006;51.494;11.964;2023-05-07T01:39:28;13.47;;;11.43;;
13872;SDS011;7006;51.494;11.964;2023-05-07T01:41:59;14.60;;;11.77;;
13872;SDS011;7006;51.494;11.964;2023-05-07T01:44:27;14.70;;;11.50;;
13872;SDS011;7006;51.494;11.964;2023-05-07T01:46:56;14.97;;;11.90;;
13872;SDS011;7006;51.494;11.964;2023-05-07T01:49:25;15.77;;;12.40;;
13872;SDS011;7006;51.494;11.964;2023-05-07T01:51:53;14.50;;;12.03;;
13872;SDS011;7006;51.494;11.964;2023-05-07T01:54:24;16.30;;;11.77;;
13872;SDS011;7006;51.494;11.964;2023-05-07T01:56:53;13.77;;;10.40;;
13872;SDS011;7006;51.494;11.964;2023-05-07T01:59:23;15.00;;;11.50;;
13872;SDS011;7006;51.494;11.964;2023-05-07T02:01:51;14.50;;;11.20;;
13872;SDS011;7006;51.494;11.964;2023-05-07T02:04:20;14.17;;;11.47;;
13872;SDS011;7006;51.494;11.964;2023-05-07T02:06:48;17.30;;;12.80;;
13872;SDS011;7006;51.494;11.964;2023-05-07T02:09:16;13.97;;;11.17;;
13872;SDS011;7006;51.494;11.964;2023-05-07T02:11:44;15.77;;;11.40;;
13872;SDS011;7006;51.494;11.964;2023-05-07T02:14:12;14.30;;;10.63;;
13872;SDS011;7006;51.494;11.964;2023-05-07T02:16:43;13.13;;;11.07;;
13872;SDS011;7006;51.494;11.964;2023-05-07T02:19:11;13.30;;;10.50;;
13872;SDS011;7006;51.494;11.964;2023-05-07T02:21:39;13.67;;;11.03;;
13872;SDS011;7006;51.494;11.964;2023-05-07T02:24:08;14.17;;;10.33;;
13872;SDS011;7006;51.494;11.964;2023-05-07T02:26:37;13.00;;;10.73;;
13872;SDS011;7006;51.494;11.964;2023-05-07T02:29:05;14.80;;;11.73;;
13872;SDS011;7006;51.494;11.964;2023-05-07T02:31:33;14.40;;;11.37;;
13872;SDS011;7006;51.494;11.964;2023-05-07T02:34:04;13.57;;;11.40;;
13872;SDS011;7006;51.494;11.964;2023-05-07T02:36:32;13.43;;;11.40;;
13872;SDS011;7006;51.494;11.964;2023-05-07T02:39:00;13.50;;;11.67;;
13872;SDS011;7006;51.494;11.964;2023-05-07T02:41:28;14.07;;;11.33;;
13872;SDS011;7006;51.494;11.964;2023-05-07T02:43:57;15.33;;;12.30;;
13872;SDS011;7006;51.494;11.964;2023-05-07T02:46:25;13.73;;;12.23;;
13872;SDS011;7006;51.494;11.964;2023-05-07T02:48:53;13.57;;;11.57;;
13872;SDS011;7006;51.494;11.964;2023-05-07T02:51:25;14.50;;;12.00;;
13872;SDS011;7006;51.494;11.964;2023-05-07T02:53:54;17.83;;;12.47;;
13872;SDS011;7006;51.494;11.964;2023-05-07T02:56:22;15.90;;;12.97;;
13872;SDS011;7006;51.494;11.964;2023-05-07T02:58:50;14.83;;;11.50;;
13872;SDS011;7006;51.494;11.964;2023-05-07T03:01:19;19.00;;;12.10;;
13872;SDS011;7006;51.494;11.964;2023-05-07T03:03:47;15.33;;;12.40;;
13872;SDS011;7006;51.494;11.964;2023-05-07T03:06:15;16.40;;;12.20;;
13872;SDS011;7006;51.494;11.964;2023-05-07T03:08:46;15.73;;;13.27;;
13872;SDS011;7006;51.494;11.964;2023-05-07T03:11:14;14.27;;;11.60;;
13872;SDS011;7006;51.494;11.964;2023-05-07T03:13:42;15.90;;;12.93;;
13872;SDS011;7006;51.494;11.964;2023-05-07T03:16:11;16.00;;;13.20;;
13872;SDS011;7006;51.494;11.964;2023-05-07T03:18:39;16.30;;;13.10;;
13872;SDS011;7006;51.494;11.964;2023-05-07T03:21:07;16.90;;;14.03;;
13872;SDS011;7006;51.494;11.964;2023-05-07T03:23:35;16.43;;;13.37;;
13872;SDS011;7006;51.494;11.964;2023-05-07T03:26:06;17.40;;;13.63;;
13872;SDS011;7006;51.494;11.964;2023-05-07T03:28:34;17.90;;;13.90;;
13872;SDS011;7006;51.494;11.964;2023-05-07T03:31:02;19.97;;;15.70;;
13872;SDS011;7006;51.494;11.964;2023-05-07T03:33:32;18.37;;;15.43;;
13872;SDS011;7006;51.494;11.964;2023-05-07T03:36:00;19.33;;;15.50;;
13872;SDS011;7006;51.494;11.964;2023-05-07T03:38:29;20.40;;;15.23;;
13872;SDS011;7006;51.494;11.964;2023-05-07T03:40:57;19.00;;;15.50;;
13872;SDS011;7006;51.494;11.964;2023-05-07T03:43:27;22.97;;;16.03;;
13872;SDS011;7006;51.494;11.964;2023-05-07T03:45:56;20.20;;;16.00;;
13872;SDS011;7006;51.494;11.964;2023-05-07T03:48:24;21.30;;;16.63;;
13872;SDS011;7006;51.494;11.964;2023-05-07T03:50:52;21.87;;;16.53;;
13872;SDS011;7006;51.494;11.964;2023-05-07T03:53:20;18.27;;;15.60;;
13872;SDS011;7006;51.494;11.964;2023-05-07T03:55:48;21.40;;;16.87;;
13872;SDS011;7006;51.494;11.964;2023-05-07T03:58:17;17.20;;;15.33;;
13872;SDS011;7006;51.494;11.964;2023-05-07T04:00:47;21.67;;;16.97;;
13872;SDS011;7006;51.494;11.964;2023-05-07T04:03:16;20.43;;;15.90;;
13872;SDS011;7006;51.494;11.964;2023-05-07T04:05:45;21.20;;;15.20;;
13872;SDS011;7006;51.494;11.964;2023-05-07T04:08:13;21.70;;;16.87;;
13872;SDS011;7006;51.494;11.964;2023-05-07T04:10:41;20.30;;;16.43;;
13872;SDS011;7006;51.494;11.964;2023-05-07T04:13:09;20.30;;;15.70;;
13872;SDS011;7006;51.494;11.964;2023-05-07T04:15:37;18.47;;;15.30;;
13872;SDS011;7006;51.494;11.964;2023-05-07T04:18:08;20.03;;;15.53;;
13872;SDS011;7006;51.494;11.964;2023-05-07T04:20:36;21.07;;;16.33;;
13872;SDS011;7006;51.494;11.964;2023-05-07T04:23:04;24.60;;;16.57;;
13872;SDS011;7006;51.494;11.964;2023-05-07T04:25:32;21.13;;;16.80;;
13872;SDS011;7006;51.494;11.964;2023-05-07T04:28:01;21.27;;;16.20;;
13872;SDS011;7006;51.494;11.964;2023-05-07T04:30:29;26.10;;;17.67;;
13872;SDS011;7006;51.494;11.964;2023-05-07T04:32:57;22.17;;;18.00;;
13872;SDS011;7006;51.494;11.964;2023-05-07T04:35:28;20.07;;;15.40;;
13872;SDS011;7006;51.494;11.964;2023-05-07T04:37:56;22.50;;;17.23;;
13872;SDS011;7006;51.494;11.964;2023-05-07T04:40:24;23.20;;;18.03;;
13872;SDS011;7006;51.494;11.964;2023-05-07T04:42:52;21.30;;;16.77;;
13872;SDS011;7006;51.494;11.964;2023-05-07T04:45:21;22.87;;;17.83;;
13872;SDS011;7006;51.494;11.964;2023-05-07T04:47:49;24.03;;;18.03;;
13872;SDS011;7006;51.494;11.964;2023-05-07T04:50:17;21.87;;;17.80;;
13872;SDS011;7006;51.494;11.964;2023-05-07T04:52:51;26.97;;;20.13;;
13872;SDS011;7006;51.494;11.964;2023-05-07T04:55:19;23.97;;;18.43;;
13872;SDS011;7006;51.494;11.964;2023-05-07T04:57:47;26.60;;;19.63;;
13872;SDS011;7006;51.494;11.964;2023-05-07T05:00:15;26.30;;;20.53;;
13872;SDS011;7006;51.494;11.964;2023-05-07T05:02:44;23.13;;;18.30;;
13872;SDS011;7006;51.494;11.964;2023-05-07T05:05:12;24.60;;;19.37;;
13872;SDS011;7006;51.494;11.964;2023-05-07T05:07:41;22.03;;;18.10;;
13872;SDS011;7006;51.494;11.964;2023-05-07T05:10:11;25.03;;;18.30;;
13872;SDS011;7006;51.494;11.964;2023-05-07T05:12:41;24.13;;;18.83;;
13872;SDS011;7006;51.494;11.964;2023-05-07T05:15:10;24.40;;;19.40;;
13872;SDS011;7006;51.494;11.964;2023-05-07T05:17:39;24.17;;;17.90;;
13872;SDS011;7006;51.494;11.964;2023-05-07T05:20:07;24.87;;;18.63;;
13872;SDS011;7006;51.494;11.964;2023-05-07T05:22:36;23.50;;;18.80;;
13872;SDS011;7006;51.494;11.964;2023-05-07T05:25:05;21.30;;;16.93;;
13872;SDS011;7006;51.494;11.964;2023-05-07T05:27:35;25.47;;;18.60;;
13872;SDS011;7006;51.494;11.964;2023-05-07T05:30:04;23.40;;;18.50;;
13872;SDS011;7006;51.494;11.964;2023-05-07T05:32:33;24.40;;;18.40;;
13872;SDS011;7006;51.494;11.964;2023-05-07T05:35:01;24.83;;;18.53;;
13872;SDS011;7006;51.494;11.964;2023-05-07T05:37:29;22.67;;;18.13;;
13872;SDS011;7006;51.494;11.964;2023-05-07T05:39:58;20.60;;;17.47;;
13872;SDS011;7006;51.494;11.964;2023-05-07T05:42:26;23.40;;;18.67;;
13872;SDS011;7006;51.494;11.964;2023-05-07T05:44:56;23.50;;;18.37;;
13872;SDS011;7006;51.494;11.964;2023-05-07T05:47:25;23.30;;;18.53;;
13872;SDS011;7006;51.494;11.964;2023-05-07T05:49:53;22.27;;;17.90;;
13872;SDS011;7006;51.494;11.964;2023-05-07T05:52:21;21.80;;;16.80;;
13872;SDS011;7006;51.494;11.964;2023-05-07T05:54:50;20.90;;;17.00;;
13872;SDS011;7006;51.494;11.964;2023-05-07T05:57:18;21.80;;;18.93;;
13872;SDS011;7006;51.494;11.964;2023-05-07T05:59:46;24.13;;;17.73;;
13872;SDS011;7006;51.494;11.964;2023-05-07T06:02:17;21.40;;;17.73;;
13872;SDS011;7006;51.494;11.964;2023-05-07T06:04:45;19.87;;;16.50;;
13872;SDS011;7006;51.494;11.964;2023-05-07T06:07:14;18.50;;;15.60;;
13872;SDS011;7006;51.494;11.964;2023-05-07T06:09:42;19.13;;;15.60;;
13872;SDS011;7006;51.494;11.964;2023-05-07T06:12:10;18.10;;;15.40;;
13872;SDS011;7006;51.494;11.964;2023-05-07T06:14:39;21.40;;;16.40;;
13872;SDS011;7006;51.494;11.964;2023-05-07T06:17:07;18.73;;;15.23;;
13872;SDS011;7006;51.494;11.964;2023-05-07T06:19:38;19.93;;;16.30;;
13872;SDS011;7006;51.494;11.964;2023-05-07T06:22:06;18.67;;;16.20;;
13872;SDS011;7006;51.494;11.964;2023-05-07T06:24:35;17.30;;;15.47;;
13872;SDS011;7006;51.494;11.964;2023-05-07T06:27:03;20.80;;;16.80;;
13872;SDS011;7006;51.494;11.964;2023-05-07T06:29:31;16.57;;;13.93;;
13872;SDS011;7006;51.494;11.964;2023-05-07T06:32:05;17.43;;;14.97;;
13872;SDS011;7006;51.494;11.964;2023-05-07T06:34:34;16.90;;;14.17;;
13872;SDS011;7006;51.494;11.964;2023-05-07T06:37:04;15.83;;;13.73;;
13872;SDS011;7006;51.494;11.964;2023-05-07T06:39:33;21.27;;;19.03;;
13872;SDS011;7006;51.494;11.964;2023-05-07T06:42:01;18.87;;;13.80;;
13872;SDS011;7006;51.494;11.964;2023-05-07T06:44:29;14.80;;;12.23;;
13872;SDS011;7006;51.494;11.964;2023-05-07T06:46:57;14.90;;;13.00;;
13872;SDS011;7006;51.494;11.964;2023-05-07T06:49:26;15.30;;;13.07;;
13872;SDS011;7006;51.494;11.964;2023-05-07T06:51:54;14.30;;;12.13;;
13872;SDS011;7006;51.494;11.964;2023-05-07T06:54:25;15.00;;;13.40;;
13872;SDS011;7006;51.494;11.964;2023-05-07T06:56:53;16.30;;;12.63;;
13872;SDS011;7006;51.494;11.964;2023-05-07T06:59:21;14.30;;;11.77;;
13872;SDS011;7006;51.494;11.964;2023-05-07T07:01:50;15.10;;;12.07;;
13872;SDS011;7006;51.494;11.964;2023-05-07T07:04:18;14.53;;;12.50;;
13872;SDS011;7006;51.494;11.964;2023-05-07T07:06:47;13.60;;;11.33;;
13872;SDS011;7006;51.494;11.964;2023-05-07T07:09:15;13.63;;;11.93;;
13872;SDS011;7006;51.494;11.964;2023-05-07T07:11:46;13.47;;;12.07;;
13872;SDS011;7006;51.494;11.964;2023-05-07T07:14:14;14.33;;;11.50;;
13872;SDS011;7006;51.494;11.964;2023-05-07T07:16:46;15.17;;;13.03;;
13872;SDS011;7006;51.494;11.964;2023-05-07T07:19:15;13.43;;;12.00;;
13872;SDS011;7006;51.494;11.964;2023-05-07T07:21:46;15.37;;;12.97;;
13872;SDS011;7006;51.494;11.964;2023-05-07T07:24:14;16.97;;;12.90;;
13872;SDS011;7006;51.494;11.964;2023-05-07T07:26:48;16.67;;;14.17;;
13872;SDS011;7006;51.494;11.964;2023-05-07T07:29:17;16.83;;;14.63;;
13872;SDS011;7006;51.494;11.964;2023-05-07T07:31:45;15.47;;;13.57;;
13872;SDS011;7006;51.494;11.964;2023-05-07T07:34:13;20.70;;;13.97;;
13872;SDS011;7006;51.494;11.964;2023-05-07T07:36:41;18.30;;;15.03;;
13872;SDS011;7006;51.494;11.964;2023-05-07T07:39:09;17.70;;;15.80;;
13872;SDS011;7006;51.494;11.964;2023-05-07T07:41:38;19.73;;;16.60;;
13872;SDS011;7006;51.494;11.964;2023-05-07T07:44:08;19.77;;;15.30;;
13872;SDS011;7006;51.494;11.964;2023-05-07T07:46:38;17.27;;;15.37;;
13872;SDS011;7006;51.494;11.964;2023-05-07T07:49:06;16.73;;;14.93;;
13872;SDS011;7006;51.494;11.964;2023-05-07T07:51:34;19.10;;;15.63;;
13872;SDS011;7006;51.494;11.964;2023-05-07T07:54:02;23.10;;;19.43;;
13872;SDS011;7006;51.494;11.964;2023-05-07T07:56:31;16.60;;;14.37;;
13872;SDS011;7006;51.494;11.964;2023-05-07T07:58:59;19.23;;;15.80;;
13872;SDS011;7006;51.494;11.964;2023-05-07T08:01:30;32.13;;;22.53;;
13872;SDS011;7006;51.494;11.964;2023-05-07T08:03:58;16.40;;;13.50;;
13872;SDS011;7006;51.494;11.964;2023-05-07T08:06:28;16.60;;;13.97;;
13872;SDS011;7006;51.494;11.964;2023-05-07T08:08:56;15.20;;;13.27;;
13872;SDS011;7006;51.494;11.964;2023-05-07T08:11:24;16.93;;;14.93;;
13872;SDS011;7006;51.494;11.964;2023-05-07T08:13:53;17.77;;;14.30;;
13872;SDS011;7006;51.494;11.964;2023-05-07T08:16:21;16.70;;;13.87;;
13872;SDS011;7006;51.494;11.964;2023-05-07T08:18:52;15.90;;;13.50;;
13872;SDS011;7006;51.494;11.964;2023-05-07T08:21:20;15.27;;;13.27;;
13872;SDS011;7006;51.494;11.964;2023-05-07T08:23:49;14.20;;;12.70;;
13872;SDS011;7006;51.494;11.964;2023-05-07T08:26:17;15.83;;;12.77;;
13872;SDS011;7006;51.494;11.964;2023-05-07T08:28:46;13.30;;;11.87;;
13872;SDS011;7006;51.494;11.964;2023-05-07T08:31:14;14.47;;;12.97;;
13872;SDS011;7006;51.494;11.964;2023-05-07T08:33:42;14.20;;;12.80;;
13872;SDS011;7006;51.494;11.964;2023-05-07T08:36:13;14.77;;;13.27;;
13872;SDS011;7006;51.494;11.964;2023-05-07T08:38:41;12.87;;;11.57;;
13872;SDS011;7006;51.494;11.964;2023-05-07T08:41:10;13.37;;;12.07;;
13872;SDS011;7006;51.494;11.964;2023-05-07T08:43:39;13.00;;;11.30;;
13872;SDS011;7006;51.494;11.964;2023-05-07T08:46:09;13.93;;;12.50;;
13872;SDS011;7006;51.494;11.964;2023-05-07T08:48:37;12.97;;;11.60;;
13872;SDS011;7006;51.494;11.964;2023-05-07T08:51:05;13.20;;;11.80;;
13872;SDS011;7006;51.494;11.964;2023-05-07T08:53:36;12.60;;;11.30;;
13872;SDS011;7006;51.494;11.964;2023-05-07T08:56:08;11.60;;;10.40;;
13872;SDS011;7006;51.494;11.964;2023-05-07T08:58:41;11.13;;;9.97;;
13872;SDS011;7006;51.494;11.964;2023-05-07T09:01:09;11.73;;;10.10;;
13872;SDS011;7006;51.494;11.964;2023-05-07T09:03:38;11.60;;;10.47;;
13872;SDS011;7006;51.494;11.964;2023-05-07T09:06:07;10.47;;;9.37;;
13872;SDS011;7006;51.494;11.964;2023-05-07T09:08:37;9.63;;;8.63;;
13872;SDS011;7006;51.494;11.964;2023-05-07T09:11:06;10.77;;;9.67;;
13872;SDS011;7006;51.494;11.964;2023-05-07T09:13:35;12.23;;;10.60;;
13872;SDS011;7006;51.494;11.964;2023-05-07T09:16:09;11.20;;;10.10;;
13872;SDS011;7006;51.494;11.964;2023-05-07T09:18:41;11.17;;;9.97;;
13872;SDS011;7006;51.494;11.964;2023-05-07T09:21:10;11.97;;;10.70;;
13872;SDS011;7006;51.494;11.964;2023-05-07T09:23:41;11.93;;;10.50;;
13872;SDS011;7006;51.494;11.964;2023-05-07T09:26:09;15.20;;;11.50;;
13872;SDS011;7006;51.494;11.964;2023-05-07T09:28:38;12.43;;;10.57;;
13872;SDS011;7006;51.494;11.964;2023-05-07T09:31:06;13.07;;;10.77;;
13872;SDS011;7006;51.494;11.964;2023-05-07T09:33:35;14.70;;;13.03;;
13872;SDS011;7006;51.494;11.964;2023-05-07T09:36:03;13.73;;;12.33;;
13872;SDS011;7006;51.494;11.964;2023-05-07T09:38:32;13.57;;;12.17;;
13872;SDS011;7006;51.494;11.964;2023-05-07T09:41:07;17.27;;;12.57;;
13872;SDS011;7006;51.494;11.964;2023-05-07T09:43:36;14.37;;;12.20;;
13872;SDS011;7006;51.494;11.964;2023-05-07T09:46:06;14.13;;;11.63;;
13872;SDS011;7006;51.494;11.964;2023-05-07T09:48:36;15.47;;;13.07;;
13872;SDS011;7006;51.494;11.964;2023-05-07T09:51:06;14.93;;;13.00;;
13872;SDS011;7006;51.494;11.964;2023-05-07T09:53:36;16.90;;;14.60;;
13872;SDS011;7006;51.494;11.964;2023-05-07T09:56:08;18.37;;;15.67;;
13872;SDS011;7006;51.494;11.964;2023-05-07T09:58:37;19.33;;;15.00;;
13872;SDS011;7006;51.494;11.964;2023-05-07T10:01:07;17.77;;;15.60;;
13872;SDS011;7006;51.494;11.964;2023-05-07T10:03:35;18.67;;;15.77;;
13872;SDS011;7006;51.494;11.964;2023-05-07T10:06:04;17.50;;;15.70;;
13872;SDS011;7006;51.494;11.964;2023-05-07T10:08:32;17.73;;;15.83;;
13872;SDS011;7006;51.494;11.964;2023-05-07T10:11:00;18.73;;;15.77;;
13872;SDS011;7006;51.494;11.964;2023-05-07T10:13:31;15.80;;;13.30;;
13872;SDS011;7006;51.494;11.964;2023-05-07T10:16:00;19.00;;;16.73;;
13872;SDS011;7006;51.494;11.964;2023-05-07T10:18:29;17.43;;;15.53;;
13872;SDS011;7006;51.494;11.964;2023-05-07T10:21:01;16.00;;;14.30;;
13872;SDS011;7006;51.494;11.964;2023-05-07T10:23:29;16.03;;;13.70;;
13872;SDS011;7006;51.494;11.964;2023-05-07T10:25:59;16.30;;;13.17;;
13872;SDS011;7006;51.494;11.964;2023-05-07T10:28:29;18.37;;;14.30;;
13872;SDS011;7006;51.494;11.964;2023-05-07T10:31:04;17.00;;;14.43;;
13872;SDS011;7006;51.494;11.964;2023-05-07T10:33:35;17.17;;;13.97;;
13872;SDS011;7006;51.494;11.964;2023-05-07T10:36:04;19.13;;;14.90;;
13872;SDS011;7006;51.494;11.964;2023-05-07T10:38:33;18.33;;;15.40;;
13872;SDS011;7006;51.494;11.964;2023-05-07T10:41:01;18.17;;;16.00;;
13872;SDS011;7006;51.494;11.964;2023-05-07T10:43:40;18.20;;;15.60;;
13872;SDS011;7006;51.494;11.964;2023-05-07T10:46:14;16.70;;;15.00;;
13872;SDS011;7006;51.494;11.964;2023-05-07T10:51:25;16.73;;;14.93;;
13872;SDS011;7006;51.494;11.964;2023-05-07T10:56:36;19.60;;;17.53;;
13872;SDS011;7006;51.494;11.964;2023-05-07T11:01:59;19.63;;;17.27;;
13872;SDS011;7006;51.494;11.964;2023-05-07T11:04:28;19.67;;;16.83;;
13872;SDS011;7006;51.494;11.964;2023-05-07T11:09:56;18.77;;;16.53;;
13872;SDS011;7006;51.494;11.964;2023-05-07T11:18:07;17.17;;;15.37;;
13872;SDS011;7006;51.494;11.964;2023-05-07T11:20:45;16.40;;;14.70;;
13872;SDS011;7006;51.494;11.964;2023-05-07T11:25:58;13.77;;;12.37;;
13872;SDS011;7006;51.494;11.964;2023-05-07T11:28:27;14.40;;;12.90;;
13872;SDS011;7006;51.494;11.964;2023-05-07T11:30:55;15.30;;;13.07;;
13872;SDS011;7006;51.494;11.964;2023-05-07T11:33:26;12.27;;;10.97;;
13872;SDS011;7006;51.494;11.964;2023-05-07T11:35:55;14.80;;;13.17;;
13872;SDS011;7006;51.494;11.964;2023-05-07T11:38:23;15.13;;;13.50;;
13872;SDS011;7006;51.494;11.964;2023-05-07T11:40:52;16.83;;;15.03;;
13872;SDS011;7006;51.494;11.964;2023-05-07T11:43:21;19.13;;;16.30;;
13872;SDS011;7006;51.494;11.964;2023-05-07T11:45:49;14.77;;;13.10;;
13872;SDS011;7006;51.494;11.964;2023-05-07T11:48:17;15.13;;;13.63;;
13872;SDS011;7006;51.494;11.964;2023-05-07T11:50:53;15.60;;;13.97;;
13872;SDS011;7006;51.494;11.964;2023-05-07T11:53:23;15.60;;;14.00;;
13872;SDS011;7006;51.494;11.964;2023-05-07T11:55:52;15.10;;;13.60;;
13872;SDS011;7006;51.494;11.964;2023-05-07T11:58:21;19.60;;;15.87;;
13872;SDS011;7006;51.494;11.964;2023-05-07T12:00:49;18.30;;;16.10;;
13872;SDS011;7006;51.494;11.964;2023-05-07T12:03:17;19.63;;;15.47;;
13872;SDS011;7006;51.494;11.964;2023-05-07T12:05:46;17.20;;;13.83;;
13872;SDS011;7006;51.494;11.964;2023-05-07T12:08:16;15.30;;;13.67;;
13872;SDS011;7006;51.494;11.964;2023-05-07T12:10:46;16.27;;;14.57;;
13872;SDS011;7006;51.494;11.964;2023-05-07T12:13:14;15.17;;;13.30;;
13872;SDS011;7006;51.494;11.964;2023-05-07T12:15:42;14.83;;;11.37;;
13872;SDS011;7006;51.494;11.964;2023-05-07T12:18:11;12.70;;;11.50;;
13872;SDS011;7006;51.494;11.964;2023-05-07T12:20:39;13.80;;;12.40;;
13872;SDS011;7006;51.494;11.964;2023-05-07T12:23:08;13.57;;;12.17;;
13872;SDS011;7006;51.494;11.964;2023-05-07T12:25:39;11.77;;;10.57;;
13872;SDS011;7006;51.494;11.964;2023-05-07T12:28:12;11.17;;;10.07;;
13872;SDS011;7006;51.494;11.964;2023-05-07T12:30:40;12.37;;;10.50;;
13872;SDS011;7006;51.494;11.964;2023-05-07T12:33:09;11.57;;;10.30;;
13872;SDS011;7006;51.494;11.964;2023-05-07T12:35:39;12.17;;;9.97;;
13872;SDS011;7006;51.494;11.964;2023-05-07T12:38:07;11.17;;;10.00;;
13872;SDS011;7006;51.494;11.964;2023-05-07T12:40:39;14.00;;;10.93;;
13872;SDS011;7006;51.494;11.964;2023-05-07T12:43:07;12.70;;;11.40;;
13872;SDS011;7006;51.494;11.964;2023-05-07T12:45:38;14.90;;;12.97;;
13872;SDS011;7006;51.494;11.964;2023-05-07T12:48:07;14.30;;;12.50;;
13872;SDS011;7006;51.494;11.964;2023-05-07T12:50:37;13.57;;;12.03;;
13872;SDS011;7006;51.494;11.964;2023-05-07T12:53:05;15.00;;;12.80;;
13872;SDS011;7006;51.494;11.964;2023-05-07T12:55:43;13.13;;;11.83;;
13872;SDS011;7006;51.494;11.964;2023-05-07T12:58:15;15.37;;;13.77;;
13872;SDS011;7006;51.494;11.964;2023-05-07T13:00:44;18.00;;;13.83;;
13872;SDS011;7006;51.494;11.964;2023-05-07T13:03:15;15.23;;;13.63;;
13872;SDS011;7006;51.494;11.964;2023-05-07T13:05:48;16.00;;;14.33;;
13872;SDS011;7006;51.494;11.964;2023-05-07T13:08:23;16.60;;;14.90;;
13872;SDS011;7006;51.494;11.964;2023-05-07T13:10:54;17.20;;;13.43;;
13872;SDS011;7006;51.494;11.964;2023-05-07T13:13:22;15.13;;;13.40;;
13872;SDS011;7006;51.494;11.964;2023-05-07T13:15:50;15.57;;;13.23;;
13872;SDS011;7006;51.494;11.964;2023-05-07T13:18:19;12.87;;;11.47;;
13872;SDS011;7006;51.494;11.964;2023-05-07T13:20:47;11.97;;;10.63;;
13872;SDS011;7006;51.494;11.964;2023-05-07T13:23:15;13.13;;;11.40;;
13872;SDS011;7006;51.494;11.964;2023-05-07T13:25:43;12.43;;;11.13;;
13872;SDS011;7006;51.494;11.964;2023-05-07T13:28:14;12.53;;;10.90;;
13872;SDS011;7006;51.494;11.964;2023-05-07T13:30:42;12.47;;;10.93;;
13872;SDS011;7006;51.494;11.964;2023-05-07T13:33:10;12.77;;;10.90;;
13872;SDS011;7006;51.494;11.964;2023-05-07T13:35:38;11.70;;;10.50;;
13872;SDS011;7006;51.494;11.964;2023-05-07T13:38:06;12.50;;;11.20;;
13872;SDS011;7006;51.494;11.964;2023-05-07T13:40:35;10.37;;;9.13;;
13872;SDS011;7006;51.494;11.964;2023-05-07T13:43:05;9.73;;;8.73;;
13872;SDS011;7006;51.494;11.964;2023-05-07T13:45:35;10.47;;;9.37;;
13872;SDS011;7006;51.494;11.964;2023-05-07T13:48:04;9.90;;;8.40;;
13872;SDS011;7006;51.494;11.964;2023-05-07T13:50:32;9.33;;;8.20;;
13872;SDS011;7006;51.494;11.964;2023-05-07T13:53:00;8.53;;;7.57;;
13872;SDS011;7006;51.494;11.964;2023-05-07T13:55:28;10.50;;;7.93;;
13872;SDS011;7006;51.494;11.964;2023-05-07T13:57:57;9.37;;;8.47;;
13872;SDS011;7006;51.494;11.964;2023-05-07T14:00:25;9.60;;;8.60;;
13872;SDS011;7006;51.494;11.964;2023-05-07T14:02:56;8.57;;;7.77;;
13872;SDS011;7006;51.494;11.964;2023-05-07T14:05:24;9.03;;;7.60;;
13872;SDS011;7006;51.494;11.964;2023-05-07T14:07:53;8.83;;;7.57;;
13872;SDS011;7006;51.494;11.964;2023-05-07T14:10:21;9.43;;;7.87;;
13872;SDS011;7006;51.494;11.964;2023-05-07T14:12:50;7.20;;;6.50;;
13872;SDS011;7006;51.494;11.964;2023-05-07T14:15:18;7.27;;;6.57;;
13872;SDS011;7006;51.494;11.964;2023-05-07T14:17:46;7.43;;;6.40;;
13872;SDS011;7006;51.494;11.964;2023-05-07T14:20:17;7.83;;;7.03;;
13872;SDS011;7006;51.494;11.964;2023-05-07T14:22:45;8.77;;;7.90;;
13872;SDS011;7006;51.494;11.964;2023-05-07T14:25:13;9.70;;;8.17;;
13872;SDS011;7006;51.494;11.964;2023-05-07T14:27:41;10.20;;;9.10;;
13872;SDS011;7006;51.494;11.964;2023-05-07T14:30:10;9.33;;;8.43;;
13872;SDS011;7006;51.494;11.964;2023-05-07T14:32:38;10.97;;;8.30;;
13872;SDS011;7006;51.494;11.964;2023-05-07T14:35:07;8.40;;;7.40;;
13872;SDS011;7006;51.494;11.964;2023-05-07T14:37:38;9.70;;;8.70;;
13872;SDS011;7006;51.494;11.964;2023-05-07T14:40:07;9.37;;;8.33;;
13872;SDS011;7006;51.494;11.964;2023-05-07T14:42:35;8.63;;;7.57;;
13872;SDS011;7006;51.494;11.964;2023-05-07T14:45:04;7.60;;;6.80;;
13872;SDS011;7006;51.494;11.964;2023-05-07T14:47:32;8.60;;;7.10;;
13872;SDS011;7006;51.494;11.964;2023-05-07T14:50:00;9.83;;;7.60;;
13872;SDS011;7006;51.494;11.964;2023-05-07T14:52:28;7.50;;;6.80;;